• Warning

    Strong gale force wind (mean wind more than 20 m/s) is expected today. Valid to 24.03.2017 00:00 More

METAR - Iceland

Last updated 23.03.2017 - at. 02:28

SIGMET for the last six hours

No SIGMET messages last 6 hours.

METAR from the last three hours

AerodromeTimeMessage
BIAR2017-03-23 02.00METAR BIAR 230200Z 19014KT CAVOK M03/M08 Q1016
BIAR2017-03-23 01.00METAR BIAR 230100Z 16013KT 130V200 CAVOK M03/M08 Q1016
BIAR2017-03-23 00.00METAR BIAR 230000Z 13011KT CAVOK M03/M09 Q1017
BIEG2017-03-23 02.00METAR BIEG 230200Z 18014KT CAVOK M03/M07 Q1017
BIEG2017-03-23 01.00METAR BIEG 230100Z 18010KT CAVOK M04/M08 Q1018
BIEG2017-03-23 00.00METAR BIEG 230000Z 19009KT CAVOK M05/M10 Q1019
BIKF2017-03-23 02.00METAR BIKF 230200Z 15017KT 9999 -RASN BKN022 OVC048 02/M01 Q1013
BIKF2017-03-23 01.30METAR BIKF 230130Z 16014KT 9999 FEW027 BKN034 OVC075 02/M01 Q1015
BIKF2017-03-23 01.00METAR BIKF 230100Z 14013KT 9999 FEW027 BKN038 OVC080 01/M02 Q1015
BIKF2017-03-23 00.30METAR BIKF 230030Z 14014KT 9999 FEW027 BKN038 OVC080 01/M02 Q1016
BIKF2017-03-23 00.00METAR BIKF 230000Z 14014KT 9999 BKN030 OVC090 00/M02 Q1016
BIKF2017-03-22 23.30METAR BIKF 222330Z 13014KT 9999 BKN030 OVC110 00/M02 Q1017
BIRK2017-03-23 02.00METAR BIRK 230200Z 11012KT 9999 BKN030 OVC059 M00/M05 Q1016
BIRK2017-03-23 01.00METAR BIRK 230100Z 10013KT 9999 BKN030 OVC070 M00/M06 Q1017
BIRK2017-03-23 00.00METAR BIRK 230000Z 09009KT 9999 BKN038 OVC120 M00/M06 Q1018


Other related web sites


This website is built with Eplica CMS